sensor_id;sensor_type;location;lat;lon;timestamp;P1;durP1;ratioP1;P2;durP2;ratioP2
15595;SDS011;7898;48.658;9.068;2023-03-14T00:02:00;1.10;;;0.57;;
15595;SDS011;7898;48.658;9.068;2023-03-14T00:04:26;1.47;;;0.60;;
15595;SDS011;7898;48.658;9.068;2023-03-14T00:06:55;1.63;;;0.60;;
15595;SDS011;7898;48.658;9.068;2023-03-14T00:09:21;1.37;;;0.87;;
15595;SDS011;7898;48.658;9.068;2023-03-14T00:11:48;0.57;;;0.50;;
15595;SDS011;7898;48.658;9.068;2023-03-14T00:14:15;1.07;;;0.50;;
15595;SDS011;7898;48.658;9.068;2023-03-14T00:16:42;1.13;;;0.60;;
15595;SDS011;7898;48.658;9.068;2023-03-14T00:19:12;2.10;;;1.47;;
15595;SDS011;7898;48.658;9.068;2023-03-14T00:21:39;1.60;;;0.60;;
15595;SDS011;7898;48.658;9.068;2023-03-14T00:24:07;0.57;;;0.40;;
15595;SDS011;7898;48.658;9.068;2023-03-14T00:26:34;0.70;;;0.50;;
15595;SDS011;7898;48.658;9.068;2023-03-14T00:29:01;0.97;;;0.57;;
15595;SDS011;7898;48.658;9.068;2023-03-14T00:31:28;0.93;;;0.70;;
15595;SDS011;7898;48.658;9.068;2023-03-14T00:33:55;0.97;;;0.60;;
15595;SDS011;7898;48.658;9.068;2023-03-14T00:36:22;1.07;;;0.70;;
15595;SDS011;7898;48.658;9.068;2023-03-14T00:38:52;0.80;;;0.50;;
15595;SDS011;7898;48.658;9.068;2023-03-14T00:41:21;0.90;;;0.50;;
15595;SDS011;7898;48.658;9.068;2023-03-14T00:43:49;1.13;;;0.60;;
15595;SDS011;7898;48.658;9.068;2023-03-14T00:46:16;0.67;;;0.40;;
15595;SDS011;7898;48.658;9.068;2023-03-14T00:48:44;0.57;;;0.50;;
15595;SDS011;7898;48.658;9.068;2023-03-14T00:51:11;2.20;;;1.10;;
15595;SDS011;7898;48.658;9.068;2023-03-14T00:53:40;2.00;;;0.50;;
15595;SDS011;7898;48.658;9.068;2023-03-14T00:56:08;1.20;;;0.50;;
15595;SDS011;7898;48.658;9.068;2023-03-14T00:58:38;0.60;;;0.50;;
15595;SDS011;7898;48.658;9.068;2023-03-14T01:01:06;0.83;;;0.40;;
15595;SDS011;7898;48.658;9.068;2023-03-14T01:03:33;0.50;;;0.30;;
15595;SDS011;7898;48.658;9.068;2023-03-14T01:06:06;0.73;;;0.40;;
15595;SDS011;7898;48.658;9.068;2023-03-14T01:08:34;0.53;;;0.43;;
15595;SDS011;7898;48.658;9.068;2023-03-14T01:11:07;0.47;;;0.30;;
15595;SDS011;7898;48.658;9.068;2023-03-14T01:13:35;0.30;;;0.20;;
15595;SDS011;7898;48.658;9.068;2023-03-14T01:16:04;0.23;;;0.23;;
15595;SDS011;7898;48.658;9.068;2023-03-14T01:18:33;0.70;;;0.30;;
15595;SDS011;7898;48.658;9.068;2023-03-14T01:21:01;0.90;;;0.43;;
15595;SDS011;7898;48.658;9.068;2023-03-14T01:23:28;0.77;;;0.57;;
15595;SDS011;7898;48.658;9.068;2023-03-14T01:25:55;1.20;;;0.40;;
15595;SDS011;7898;48.658;9.068;2023-03-14T01:28:22;1.33;;;0.60;;
15595;SDS011;7898;48.658;9.068;2023-03-14T01:30:50;0.97;;;0.50;;
15595;SDS011;7898;48.658;9.068;2023-03-14T01:33:17;0.40;;;0.40;;
15595;SDS011;7898;48.658;9.068;2023-03-14T01:35:44;0.60;;;0.40;;
15595;SDS011;7898;48.658;9.068;2023-03-14T01:38:11;1.47;;;0.57;;
15595;SDS011;7898;48.658;9.068;2023-03-14T01:40:41;1.37;;;0.50;;
15595;SDS011;7898;48.658;9.068;2023-03-14T01:43:13;0.37;;;0.37;;
15595;SDS011;7898;48.658;9.068;2023-03-14T01:48:53;1.43;;;0.63;;
15595;SDS011;7898;48.658;9.068;2023-03-14T01:51:26;0.80;;;0.37;;
15595;SDS011;7898;48.658;9.068;2023-03-14T01:53:58;0.90;;;0.40;;
15595;SDS011;7898;48.658;9.068;2023-03-14T01:56:31;2.40;;;0.50;;
15595;SDS011;7898;48.658;9.068;2023-03-14T01:58:58;0.50;;;0.40;;
15595;SDS011;7898;48.658;9.068;2023-03-14T02:01:27;0.83;;;0.57;;
15595;SDS011;7898;48.658;9.068;2023-03-14T02:03:57;1.50;;;0.50;;
15595;SDS011;7898;48.658;9.068;2023-03-14T02:06:29;2.63;;;0.40;;
15595;SDS011;7898;48.658;9.068;2023-03-14T02:09:02;0.80;;;0.40;;
15595;SDS011;7898;48.658;9.068;2023-03-14T02:11:29;0.30;;;0.30;;
15595;SDS011;7898;48.658;9.068;2023-03-14T02:13:56;2.93;;;0.50;;
15595;SDS011;7898;48.658;9.068;2023-03-14T02:16:25;0.67;;;0.43;;
15595;SDS011;7898;48.658;9.068;2023-03-14T02:18:52;2.30;;;0.50;;
15595;SDS011;7898;48.658;9.068;2023-03-14T02:21:22;0.93;;;0.43;;
15595;SDS011;7898;48.658;9.068;2023-03-14T02:23:58;0.60;;;0.40;;
15595;SDS011;7898;48.658;9.068;2023-03-14T02:26:34;0.50;;;0.37;;
15595;SDS011;7898;48.658;9.068;2023-03-14T02:29:06;0.40;;;0.30;;
15595;SDS011;7898;48.658;9.068;2023-03-14T02:31:36;0.40;;;0.30;;
15595;SDS011;7898;48.658;9.068;2023-03-14T02:34:03;0.47;;;0.47;;
15595;SDS011;7898;48.658;9.068;2023-03-14T02:36:30;1.30;;;0.50;;
15595;SDS011;7898;48.658;9.068;2023-03-14T02:39:00;0.67;;;0.33;;
15595;SDS011;7898;48.658;9.068;2023-03-14T02:41:33;0.67;;;0.50;;
15595;SDS011;7898;48.658;9.068;2023-03-14T02:44:00;0.80;;;0.30;;
15595;SDS011;7898;48.658;9.068;2023-03-14T02:46:28;0.80;;;0.30;;
15595;SDS011;7898;48.658;9.068;2023-03-14T02:48:56;0.30;;;0.30;;
15595;SDS011;7898;48.658;9.068;2023-03-14T02:51:27;0.60;;;0.30;;
15595;SDS011;7898;48.658;9.068;2023-03-14T02:53:55;0.73;;;0.40;;
15595;SDS011;7898;48.658;9.068;2023-03-14T02:56:22;1.10;;;0.40;;
15595;SDS011;7898;48.658;9.068;2023-03-14T02:58:49;0.43;;;0.30;;
15595;SDS011;7898;48.658;9.068;2023-03-14T03:01:16;0.40;;;0.27;;
15595;SDS011;7898;48.658;9.068;2023-03-14T03:03:44;0.40;;;0.30;;
15595;SDS011;7898;48.658;9.068;2023-03-14T03:06:11;0.50;;;0.47;;
15595;SDS011;7898;48.658;9.068;2023-03-14T03:08:38;1.87;;;0.50;;
15595;SDS011;7898;48.658;9.068;2023-03-14T03:11:05;0.70;;;0.30;;
15595;SDS011;7898;48.658;9.068;2023-03-14T03:13:32;1.13;;;0.50;;
15595;SDS011;7898;48.658;9.068;2023-03-14T03:15:59;1.17;;;0.60;;
15595;SDS011;7898;48.658;9.068;2023-03-14T03:18:26;0.63;;;0.53;;
15595;SDS011;7898;48.658;9.068;2023-03-14T03:20:54;2.63;;;0.60;;
15595;SDS011;7898;48.658;9.068;2023-03-14T03:23:21;2.97;;;0.93;;
15595;SDS011;7898;48.658;9.068;2023-03-14T03:25:48;2.70;;;0.60;;
15595;SDS011;7898;48.658;9.068;2023-03-14T03:28:16;1.20;;;0.50;;
15595;SDS011;7898;48.658;9.068;2023-03-14T03:30:43;2.43;;;0.60;;
15595;SDS011;7898;48.658;9.068;2023-03-14T03:33:10;4.50;;;0.93;;
15595;SDS011;7898;48.658;9.068;2023-03-14T03:35:44;5.30;;;0.60;;
15595;SDS011;7898;48.658;9.068;2023-03-14T03:38:13;1.13;;;0.50;;
15595;SDS011;7898;48.658;9.068;2023-03-14T03:40:41;1.90;;;0.60;;
15595;SDS011;7898;48.658;9.068;2023-03-14T03:43:08;1.77;;;0.77;;
15595;SDS011;7898;48.658;9.068;2023-03-14T03:45:35;1.47;;;0.70;;
15595;SDS011;7898;48.658;9.068;2023-03-14T03:48:01;2.13;;;0.80;;
15595;SDS011;7898;48.658;9.068;2023-03-14T03:50:28;3.43;;;0.60;;
15595;SDS011;7898;48.658;9.068;2023-03-14T03:52:55;2.00;;;0.60;;
15595;SDS011;7898;48.658;9.068;2023-03-14T03:55:26;3.20;;;0.60;;
15595;SDS011;7898;48.658;9.068;2023-03-14T03:57:54;3.03;;;1.00;;
15595;SDS011;7898;48.658;9.068;2023-03-14T04:00:21;1.57;;;0.70;;
15595;SDS011;7898;48.658;9.068;2023-03-14T04:02:47;3.03;;;0.80;;
15595;SDS011;7898;48.658;9.068;2023-03-14T04:05:14;3.93;;;0.77;;
15595;SDS011;7898;48.658;9.068;2023-03-14T04:07:41;5.23;;;0.90;;
15595;SDS011;7898;48.658;9.068;2023-03-14T04:10:08;3.53;;;0.70;;
15595;SDS011;7898;48.658;9.068;2023-03-14T04:12:37;1.20;;;0.70;;
15595;SDS011;7898;48.658;9.068;2023-03-14T04:15:04;4.77;;;1.03;;
15595;SDS011;7898;48.658;9.068;2023-03-14T04:17:32;6.63;;;0.90;;
15595;SDS011;7898;48.658;9.068;2023-03-14T04:19:59;3.47;;;1.13;;
15595;SDS011;7898;48.658;9.068;2023-03-14T04:22:26;1.87;;;0.60;;
15595;SDS011;7898;48.658;9.068;2023-03-14T04:24:53;3.67;;;1.00;;
15595;SDS011;7898;48.658;9.068;2023-03-14T04:27:20;2.63;;;0.70;;
15595;SDS011;7898;48.658;9.068;2023-03-14T04:29:48;2.40;;;0.93;;
15595;SDS011;7898;48.658;9.068;2023-03-14T04:32:15;1.07;;;0.80;;
15595;SDS011;7898;48.658;9.068;2023-03-14T04:34:41;2.17;;;0.70;;
15595;SDS011;7898;48.658;9.068;2023-03-14T04:37:08;2.83;;;1.10;;
15595;SDS011;7898;48.658;9.068;2023-03-14T04:39:35;3.23;;;0.80;;
15595;SDS011;7898;48.658;9.068;2023-03-14T04:42:02;5.57;;;0.90;;
15595;SDS011;7898;48.658;9.068;2023-03-14T04:44:29;4.43;;;1.07;;
15595;SDS011;7898;48.658;9.068;2023-03-14T04:46:57;3.37;;;1.47;;
15595;SDS011;7898;48.658;9.068;2023-03-14T04:49:24;3.47;;;0.97;;
15595;SDS011;7898;48.658;9.068;2023-03-14T04:51:51;2.50;;;0.87;;
15595;SDS011;7898;48.658;9.068;2023-03-14T04:54:18;2.70;;;0.70;;
15595;SDS011;7898;48.658;9.068;2023-03-14T04:56:45;2.77;;;0.70;;
15595;SDS011;7898;48.658;9.068;2023-03-14T04:59:12;1.97;;;0.70;;
15595;SDS011;7898;48.658;9.068;2023-03-14T05:01:39;3.07;;;0.80;;
15595;SDS011;7898;48.658;9.068;2023-03-14T05:04:07;5.43;;;1.03;;
15595;SDS011;7898;48.658;9.068;2023-03-14T05:06:34;2.10;;;0.60;;
15595;SDS011;7898;48.658;9.068;2023-03-14T05:09:01;5.10;;;1.60;;
15595;SDS011;7898;48.658;9.068;2023-03-14T05:11:30;3.13;;;0.90;;
15595;SDS011;7898;48.658;9.068;2023-03-14T05:13:57;2.87;;;0.60;;
15595;SDS011;7898;48.658;9.068;2023-03-14T05:16:24;1.20;;;0.80;;
15595;SDS011;7898;48.658;9.068;2023-03-14T05:18:51;1.90;;;0.90;;
15595;SDS011;7898;48.658;9.068;2023-03-14T05:21:19;1.73;;;0.80;;
15595;SDS011;7898;48.658;9.068;2023-03-14T05:23:46;1.50;;;0.67;;
15595;SDS011;7898;48.658;9.068;2023-03-14T05:26:13;2.37;;;0.77;;
15595;SDS011;7898;48.658;9.068;2023-03-14T05:28:41;4.83;;;0.70;;
15595;SDS011;7898;48.658;9.068;2023-03-14T05:31:09;3.77;;;1.03;;
15595;SDS011;7898;48.658;9.068;2023-03-14T05:33:35;5.03;;;1.30;;
15595;SDS011;7898;48.658;9.068;2023-03-14T05:36:02;1.63;;;0.73;;
15595;SDS011;7898;48.658;9.068;2023-03-14T05:38:31;1.30;;;0.70;;
15595;SDS011;7898;48.658;9.068;2023-03-14T05:40:58;4.53;;;1.03;;
15595;SDS011;7898;48.658;9.068;2023-03-14T05:43:25;1.90;;;0.80;;
15595;SDS011;7898;48.658;9.068;2023-03-14T05:45:52;1.23;;;0.83;;
15595;SDS011;7898;48.658;9.068;2023-03-14T05:48:19;3.43;;;1.10;;
15595;SDS011;7898;48.658;9.068;2023-03-14T05:50:46;1.90;;;1.00;;
15595;SDS011;7898;48.658;9.068;2023-03-14T05:53:13;6.87;;;1.30;;
15595;SDS011;7898;48.658;9.068;2023-03-14T05:55:41;5.20;;;1.70;;
15595;SDS011;7898;48.658;9.068;2023-03-14T05:58:08;3.03;;;1.30;;
15595;SDS011;7898;48.658;9.068;2023-03-14T06:00:35;5.10;;;2.63;;
15595;SDS011;7898;48.658;9.068;2023-03-14T06:03:02;6.37;;;1.83;;
15595;SDS011;7898;48.658;9.068;2023-03-14T06:05:29;7.70;;;3.10;;
15595;SDS011;7898;48.658;9.068;2023-03-14T06:07:56;11.77;;;2.70;;
15595;SDS011;7898;48.658;9.068;2023-03-14T06:10:23;7.03;;;2.10;;
15595;SDS011;7898;48.658;9.068;2023-03-14T06:12:51;2.03;;;1.17;;
15595;SDS011;7898;48.658;9.068;2023-03-14T06:15:18;4.57;;;1.27;;
15595;SDS011;7898;48.658;9.068;2023-03-14T06:17:45;6.40;;;2.37;;
15595;SDS011;7898;48.658;9.068;2023-03-14T06:20:12;5.37;;;2.30;;
15595;SDS011;7898;48.658;9.068;2023-03-14T06:22:39;6.60;;;2.30;;
15595;SDS011;7898;48.658;9.068;2023-03-14T06:25:07;6.47;;;2.40;;
15595;SDS011;7898;48.658;9.068;2023-03-14T06:27:34;4.87;;;2.57;;
15595;SDS011;7898;48.658;9.068;2023-03-14T06:30:03;6.00;;;1.87;;
15595;SDS011;7898;48.658;9.068;2023-03-14T06:32:30;3.87;;;2.10;;
15595;SDS011;7898;48.658;9.068;2023-03-14T06:34:57;3.33;;;1.23;;
15595;SDS011;7898;48.658;9.068;2023-03-14T06:37:26;6.93;;;2.30;;
15595;SDS011;7898;48.658;9.068;2023-03-14T06:39:53;3.07;;;1.53;;
15595;SDS011;7898;48.658;9.068;2023-03-14T06:42:22;2.90;;;1.20;;
15595;SDS011;7898;48.658;9.068;2023-03-14T06:44:49;2.30;;;1.30;;
15595;SDS011;7898;48.658;9.068;2023-03-14T06:47:17;4.55;;;2.17;;
15595;SDS011;7898;48.658;9.068;2023-03-14T06:49:44;1.57;;;1.03;;
15595;SDS011;7898;48.658;9.068;2023-03-14T06:52:11;2.93;;;1.50;;
15595;SDS011;7898;48.658;9.068;2023-03-14T06:54:38;2.43;;;1.30;;
15595;SDS011;7898;48.658;9.068;2023-03-14T06:57:05;3.00;;;1.10;;
15595;SDS011;7898;48.658;9.068;2023-03-14T06:59:32;1.93;;;0.80;;
15595;SDS011;7898;48.658;9.068;2023-03-14T07:01:59;2.43;;;0.90;;
15595;SDS011;7898;48.658;9.068;2023-03-14T07:04:27;4.90;;;0.93;;
15595;SDS011;7898;48.658;9.068;2023-03-14T07:06:54;1.17;;;0.80;;
15595;SDS011;7898;48.658;9.068;2023-03-14T07:09:21;8.93;;;0.70;;
15595;SDS011;7898;48.658;9.068;2023-03-14T07:11:48;2.10;;;0.80;;
15595;SDS011;7898;48.658;9.068;2023-03-14T07:14:14;1.17;;;0.73;;
15595;SDS011;7898;48.658;9.068;2023-03-14T07:16:41;1.47;;;0.60;;
15595;SDS011;7898;48.658;9.068;2023-03-14T07:19:08;1.43;;;0.80;;
15595;SDS011;7898;48.658;9.068;2023-03-14T07:21:36;1.43;;;0.67;;
15595;SDS011;7898;48.658;9.068;2023-03-14T07:24:03;2.40;;;0.90;;
15595;SDS011;7898;48.658;9.068;2023-03-14T07:26:31;3.93;;;0.60;;
15595;SDS011;7898;48.658;9.068;2023-03-14T07:28:58;2.30;;;0.90;;
15595;SDS011;7898;48.658;9.068;2023-03-14T07:31:25;1.87;;;0.70;;
15595;SDS011;7898;48.658;9.068;2023-03-14T07:33:51;1.23;;;0.43;;
15595;SDS011;7898;48.658;9.068;2023-03-14T07:36:18;0.80;;;0.40;;
15595;SDS011;7898;48.658;9.068;2023-03-14T07:38:47;0.83;;;0.37;;
15595;SDS011;7898;48.658;9.068;2023-03-14T07:41:14;2.37;;;0.70;;
15595;SDS011;7898;48.658;9.068;2023-03-14T07:43:41;2.13;;;0.40;;
15595;SDS011;7898;48.658;9.068;2023-03-14T07:46:08;1.40;;;0.63;;
15595;SDS011;7898;48.658;9.068;2023-03-14T07:48:35;2.47;;;0.80;;
15595;SDS011;7898;48.658;9.068;2023-03-14T07:51:02;3.43;;;0.40;;
15595;SDS011;7898;48.658;9.068;2023-03-14T07:53:29;1.50;;;0.53;;
15595;SDS011;7898;48.658;9.068;2023-03-14T07:55:57;1.10;;;0.60;;
15595;SDS011;7898;48.658;9.068;2023-03-14T07:58:24;2.03;;;0.70;;
15595;SDS011;7898;48.658;9.068;2023-03-14T08:00:51;0.43;;;0.40;;
15595;SDS011;7898;48.658;9.068;2023-03-14T08:03:19;0.73;;;0.50;;
15595;SDS011;7898;48.658;9.068;2023-03-14T08:05:47;1.67;;;0.73;;
15595;SDS011;7898;48.658;9.068;2023-03-14T08:08:14;1.97;;;0.60;;
15595;SDS011;7898;48.658;9.068;2023-03-14T08:10:41;3.27;;;0.37;;
15595;SDS011;7898;48.658;9.068;2023-03-14T08:13:09;1.90;;;0.70;;
15595;SDS011;7898;48.658;9.068;2023-03-14T08:15:36;1.00;;;0.40;;
15595;SDS011;7898;48.658;9.068;2023-03-14T08:18:04;2.87;;;0.67;;
15595;SDS011;7898;48.658;9.068;2023-03-14T08:20:31;2.30;;;0.50;;
15595;SDS011;7898;48.658;9.068;2023-03-14T08:22:59;2.20;;;0.63;;
15595;SDS011;7898;48.658;9.068;2023-03-14T08:25:27;1.47;;;0.60;;
15595;SDS011;7898;48.658;9.068;2023-03-14T08:27:54;1.52;;;0.40;;
15595;SDS011;7898;48.658;9.068;2023-03-14T08:30:23;0.70;;;0.30;;
15595;SDS011;7898;48.658;9.068;2023-03-14T08:32:50;1.85;;;0.40;;
15595;SDS011;7898;48.658;9.068;2023-03-14T08:35:17;1.73;;;0.50;;
15595;SDS011;7898;48.658;9.068;2023-03-14T08:37:44;1.38;;;0.35;;
15595;SDS011;7898;48.658;9.068;2023-03-14T08:40:12;1.20;;;0.50;;
15595;SDS011;7898;48.658;9.068;2023-03-14T08:42:40;0.73;;;0.30;;
15595;SDS011;7898;48.658;9.068;2023-03-14T08:45:08;6.18;;;3.35;;
15595;SDS011;7898;48.658;9.068;2023-03-14T08:47:38;0.98;;;0.65;;
15595;SDS011;7898;48.658;9.068;2023-03-14T08:50:06;1.00;;;0.47;;
15595;SDS011;7898;48.658;9.068;2023-03-14T08:52:34;1.05;;;0.40;;
15595;SDS011;7898;48.658;9.068;2023-03-14T08:55:02;0.80;;;0.40;;
15595;SDS011;7898;48.658;9.068;2023-03-14T08:57:30;2.00;;;0.70;;
15595;SDS011;7898;48.658;9.068;2023-03-14T08:59:57;2.57;;;0.50;;
15595;SDS011;7898;48.658;9.068;2023-03-14T09:02:24;0.40;;;0.30;;
15595;SDS011;7898;48.658;9.068;2023-03-14T09:04:53;0.37;;;0.30;;
15595;SDS011;7898;48.658;9.068;2023-03-14T09:07:20;0.53;;;0.47;;
15595;SDS011;7898;48.658;9.068;2023-03-14T09:09:47;0.67;;;0.50;;
15595;SDS011;7898;48.658;9.068;2023-03-14T09:12:14;0.87;;;0.50;;
15595;SDS011;7898;48.658;9.068;2023-03-14T09:14:41;1.33;;;0.70;;
15595;SDS011;7898;48.658;9.068;2023-03-14T09:17:08;1.27;;;0.53;;
15595;SDS011;7898;48.658;9.068;2023-03-14T09:19:35;2.93;;;0.60;;
15595;SDS011;7898;48.658;9.068;2023-03-14T09:22:03;2.70;;;0.80;;
15595;SDS011;7898;48.658;9.068;2023-03-14T09:24:30;0.73;;;0.60;;
15595;SDS011;7898;48.658;9.068;2023-03-14T09:26:57;0.77;;;0.50;;
15595;SDS011;7898;48.658;9.068;2023-03-14T09:29:24;1.37;;;0.90;;
15595;SDS011;7898;48.658;9.068;2023-03-14T09:31:51;1.00;;;0.60;;
15595;SDS011;7898;48.658;9.068;2023-03-14T09:34:18;0.67;;;0.50;;
15595;SDS011;7898;48.658;9.068;2023-03-14T09:36:45;0.73;;;0.50;;
15595;SDS011;7898;48.658;9.068;2023-03-14T09:39:13;0.43;;;0.23;;
15595;SDS011;7898;48.658;9.068;2023-03-14T09:41:42;0.50;;;0.40;;
15595;SDS011;7898;48.658;9.068;2023-03-14T09:44:11;0.30;;;0.20;;
15595;SDS011;7898;48.658;9.068;2023-03-14T09:46:43;1.00;;;0.60;;
15595;SDS011;7898;48.658;9.068;2023-03-14T09:49:15;0.63;;;0.30;;
15595;SDS011;7898;48.658;9.068;2023-03-14T09:51:47;1.83;;;0.83;;
15595;SDS011;7898;48.658;9.068;2023-03-14T09:54:22;0.30;;;0.20;;
15595;SDS011;7898;48.658;9.068;2023-03-14T09:56:56;0.50;;;0.30;;
15595;SDS011;7898;48.658;9.068;2023-03-14T09:59:23;1.07;;;0.40;;
15595;SDS011;7898;48.658;9.068;2023-03-14T10:01:51;0.60;;;0.40;;
15595;SDS011;7898;48.658;9.068;2023-03-14T10:04:20;1.40;;;0.50;;
15595;SDS011;7898;48.658;9.068;2023-03-14T10:06:49;0.50;;;0.40;;
15595;SDS011;7898;48.658;9.068;2023-03-14T10:09:17;1.80;;;0.40;;
15595;SDS011;7898;48.658;9.068;2023-03-14T10:11:51;0.83;;;0.60;;
15595;SDS011;7898;48.658;9.068;2023-03-14T10:14:28;0.85;;;0.30;;
15595;SDS011;7898;48.658;9.068;2023-03-14T10:17:08;0.73;;;0.30;;
15595;SDS011;7898;48.658;9.068;2023-03-14T10:19:37;0.40;;;0.30;;
15595;SDS011;7898;48.658;9.068;2023-03-14T10:22:16;0.75;;;0.20;;
15595;SDS011;7898;48.658;9.068;2023-03-14T10:24:46;0.40;;;0.25;;
15595;SDS011;7898;48.658;9.068;2023-03-14T10:27:17;0.50;;;0.25;;
15595;SDS011;7898;48.658;9.068;2023-03-14T10:29:51;1.05;;;0.40;;
15595;SDS011;7898;48.658;9.068;2023-03-14T10:32:20;1.00;;;0.43;;
15595;SDS011;7898;48.658;9.068;2023-03-14T10:35:03;2.67;;;0.50;;
15595;SDS011;7898;48.658;9.068;2023-03-14T10:37:35;0.40;;;0.20;;
15595;SDS011;7898;48.658;9.068;2023-03-14T10:40:04;0.60;;;0.40;;
15595;SDS011;7898;48.658;9.068;2023-03-14T10:42:32;0.43;;;0.20;;
15595;SDS011;7898;48.658;9.068;2023-03-14T10:45:05;0.43;;;0.43;;
15595;SDS011;7898;48.658;9.068;2023-03-14T10:47:52;1.25;;;0.40;;
15595;SDS011;7898;48.658;9.068;2023-03-14T10:50:22;0.57;;;0.30;;
15595;SDS011;7898;48.658;9.068;2023-03-14T10:52:51;3.80;;;0.53;;
15595;SDS011;7898;48.658;9.068;2023-03-14T10:55:20;0.50;;;0.37;;
15595;SDS011;7898;48.658;9.068;2023-03-14T10:57:49;1.30;;;0.70;;
15595;SDS011;7898;48.658;9.068;2023-03-14T11:00:17;1.17;;;0.50;;
15595;SDS011;7898;48.658;9.068;2023-03-14T11:02:54;0.60;;;0.50;;
15595;SDS011;7898;48.658;9.068;2023-03-14T11:05:31;1.50;;;0.53;;
15595;SDS011;7898;48.658;9.068;2023-03-14T11:08:07;0.80;;;0.57;;
15595;SDS011;7898;48.658;9.068;2023-03-14T11:10:39;1.20;;;0.60;;
15595;SDS011;7898;48.658;9.068;2023-03-14T11:13:12;1.20;;;0.47;;
15595;SDS011;7898;48.658;9.068;2023-03-14T11:15:45;1.33;;;0.50;;
15595;SDS011;7898;48.658;9.068;2023-03-14T11:21:18;1.30;;;0.70;;
15595;SDS011;7898;48.658;9.068;2023-03-14T11:23:51;0.47;;;0.40;;
15595;SDS011;7898;48.658;9.068;2023-03-14T11:26:29;0.40;;;0.40;;
15595;SDS011;7898;48.658;9.068;2023-03-14T11:29:07;0.97;;;0.50;;
15595;SDS011;7898;48.658;9.068;2023-03-14T11:31:42;0.60;;;0.60;;
15595;SDS011;7898;48.658;9.068;2023-03-14T11:34:12;0.60;;;0.47;;
15595;SDS011;7898;48.658;9.068;2023-03-14T11:36:44;0.77;;;0.50;;
15595;SDS011;7898;48.658;9.068;2023-03-14T11:39:18;0.50;;;0.30;;
15595;SDS011;7898;48.658;9.068;2023-03-14T11:41:47;0.50;;;0.50;;
15595;SDS011;7898;48.658;9.068;2023-03-14T11:44:18;0.87;;;0.40;;
15595;SDS011;7898;48.658;9.068;2023-03-14T11:46:47;0.73;;;0.40;;
15595;SDS011;7898;48.658;9.068;2023-03-14T11:49:18;0.90;;;0.50;;
15595;SDS011;7898;48.658;9.068;2023-03-14T11:51:59;0.80;;;0.40;;
15595;SDS011;7898;48.658;9.068;2023-03-14T11:54:31;0.77;;;0.70;;
15595;SDS011;7898;48.658;9.068;2023-03-14T11:57:05;0.90;;;0.50;;
15595;SDS011;7898;48.658;9.068;2023-03-14T11:59:41;0.73;;;0.47;;
15595;SDS011;7898;48.658;9.068;2023-03-14T12:02:15;0.60;;;0.40;;
15595;SDS011;7898;48.658;9.068;2023-03-14T12:04:53;2.80;;;0.70;;
15595;SDS011;7898;48.658;9.068;2023-03-14T12:07:29;0.53;;;0.33;;
15595;SDS011;7898;48.658;9.068;2023-03-14T12:10:04;0.50;;;0.50;;
15595;SDS011;7898;48.658;9.068;2023-03-14T12:12:36;0.43;;;0.40;;
15595;SDS011;7898;48.658;9.068;2023-03-14T12:15:03;0.60;;;0.40;;
15595;SDS011;7898;48.658;9.068;2023-03-14T12:17:34;0.40;;;0.40;;
15595;SDS011;7898;48.658;9.068;2023-03-14T12:20:11;1.00;;;0.33;;
15595;SDS011;7898;48.658;9.068;2023-03-14T12:22:44;0.20;;;0.20;;
15595;SDS011;7898;48.658;9.068;2023-03-14T12:25:15;0.70;;;0.30;;
15595;SDS011;7898;48.658;9.068;2023-03-14T12:30:46;0.40;;;0.30;;
15595;SDS011;7898;48.658;9.068;2023-03-14T12:35:59;0.33;;;0.27;;
15595;SDS011;7898;48.658;9.068;2023-03-14T12:38:43;1.10;;;0.50;;
15595;SDS011;7898;48.658;9.068;2023-03-14T12:41:19;0.40;;;0.40;;
15595;SDS011;7898;48.658;9.068;2023-03-14T12:43:51;0.53;;;0.40;;
15595;SDS011;7898;48.658;9.068;2023-03-14T12:46:23;2.00;;;0.40;;
15595;SDS011;7898;48.658;9.068;2023-03-14T12:48:54;0.40;;;0.30;;
15595;SDS011;7898;48.658;9.068;2023-03-14T12:51:28;1.00;;;0.40;;
15595;SDS011;7898;48.658;9.068;2023-03-14T12:57:16;6.03;;;0.70;;
15595;SDS011;7898;48.658;9.068;2023-03-14T12:59:55;0.77;;;0.50;;
15595;SDS011;7898;48.658;9.068;2023-03-14T13:02:24;0.80;;;0.50;;
15595;SDS011;7898;48.658;9.068;2023-03-14T13:04:59;1.93;;;0.53;;
15595;SDS011;7898;48.658;9.068;2023-03-14T13:07:30;1.13;;;0.40;;
15595;SDS011;7898;48.658;9.068;2023-03-14T13:10:00;0.50;;;0.33;;
15595;SDS011;7898;48.658;9.068;2023-03-14T13:12:43;0.90;;;0.50;;
15595;SDS011;7898;48.658;9.068;2023-03-14T13:15:19;0.63;;;0.30;;
15595;SDS011;7898;48.658;9.068;2023-03-14T13:17:51;1.73;;;0.57;;
15595;SDS011;7898;48.658;9.068;2023-03-14T13:20:21;2.00;;;0.60;;
15595;SDS011;7898;48.658;9.068;2023-03-14T13:22:52;2.50;;;0.50;;
15595;SDS011;7898;48.658;9.068;2023-03-14T13:25:19;1.40;;;0.70;;
15595;SDS011;7898;48.658;9.068;2023-03-14T13:27:47;1.10;;;0.57;;
15595;SDS011;7898;48.658;9.068;2023-03-14T13:30:16;4.40;;;1.43;;
15595;SDS011;7898;48.658;9.068;2023-03-14T13:32:48;2.00;;;0.50;;
15595;SDS011;7898;48.658;9.068;2023-03-14T13:35:17;1.00;;;0.60;;
15595;SDS011;7898;48.658;9.068;2023-03-14T13:37:47;0.97;;;0.40;;
15595;SDS011;7898;48.658;9.068;2023-03-14T13:40:20;1.57;;;0.70;;
15595;SDS011;7898;48.658;9.068;2023-03-14T13:42:59;0.47;;;0.40;;
15595;SDS011;7898;48.658;9.068;2023-03-14T13:45:29;0.90;;;0.40;;
15595;SDS011;7898;48.658;9.068;2023-03-14T13:47:56;0.87;;;0.73;;
15595;SDS011;7898;48.658;9.068;2023-03-14T13:50:23;0.73;;;0.60;;
15595;SDS011;7898;48.658;9.068;2023-03-14T13:52:54;2.50;;;0.67;;
15595;SDS011;7898;48.658;9.068;2023-03-14T13:55:22;1.17;;;0.60;;
15595;SDS011;7898;48.658;9.068;2023-03-14T13:57:50;1.57;;;0.87;;
15595;SDS011;7898;48.658;9.068;2023-03-14T14:00:21;1.70;;;0.63;;
15595;SDS011;7898;48.658;9.068;2023-03-14T14:02:53;1.20;;;0.53;;
15595;SDS011;7898;48.658;9.068;2023-03-14T14:05:20;2.47;;;0.53;;
15595;SDS011;7898;48.658;9.068;2023-03-14T14:07:48;2.40;;;0.40;;
15595;SDS011;7898;48.658;9.068;2023-03-14T14:10:16;0.67;;;0.40;;
15595;SDS011;7898;48.658;9.068;2023-03-14T14:12:45;4.00;;;0.60;;
15595;SDS011;7898;48.658;9.068;2023-03-14T14:15:16;1.47;;;0.70;;
15595;SDS011;7898;48.658;9.068;2023-03-14T14:17:48;0.73;;;0.57;;
15595;SDS011;7898;48.658;9.068;2023-03-14T14:20:23;1.23;;;0.53;;
15595;SDS011;7898;48.658;9.068;2023-03-14T14:23:00;0.80;;;0.50;;
15595;SDS011;7898;48.658;9.068;2023-03-14T14:25:29;2.27;;;0.50;;
15595;SDS011;7898;48.658;9.068;2023-03-14T14:27:56;1.57;;;0.57;;
15595;SDS011;7898;48.658;9.068;2023-03-14T14:30:28;1.60;;;0.60;;
15595;SDS011;7898;48.658;9.068;2023-03-14T14:33:10;1.20;;;0.57;;
15595;SDS011;7898;48.658;9.068;2023-03-14T14:35:51;0.50;;;0.40;;
15595;SDS011;7898;48.658;9.068;2023-03-14T14:38:20;2.40;;;0.60;;
15595;SDS011;7898;48.658;9.068;2023-03-14T14:40:48;4.73;;;0.90;;
15595;SDS011;7898;48.658;9.068;2023-03-14T14:56:06;3.43;;;0.70;;
15595;SDS011;7898;48.658;9.068;2023-03-14T14:58:43;1.00;;;0.70;;
15595;SDS011;7898;48.658;9.068;2023-03-14T15:01:11;1.33;;;1.03;;
15595;SDS011;7898;48.658;9.068;2023-03-14T15:03:41;3.83;;;1.00;;
15595;SDS011;7898;48.658;9.068;2023-03-14T15:06:10;2.30;;;1.20;;
15595;SDS011;7898;48.658;9.068;2023-03-14T15:08:39;3.70;;;1.10;;
15595;SDS011;7898;48.658;9.068;2023-03-14T15:11:09;1.97;;;1.27;;
15595;SDS011;7898;48.658;9.068;2023-03-14T15:13:42;2.40;;;1.27;;
15595;SDS011;7898;48.658;9.068;2023-03-14T15:16:09;2.40;;;1.00;;
15595;SDS011;7898;48.658;9.068;2023-03-14T15:18:37;2.50;;;1.00;;
15595;SDS011;7898;48.658;9.068;2023-03-14T15:21:04;3.83;;;1.20;;
15595;SDS011;7898;48.658;9.068;2023-03-14T15:23:31;1.73;;;0.90;;
15595;SDS011;7898;48.658;9.068;2023-03-14T15:25:58;2.00;;;0.77;;
15595;SDS011;7898;48.658;9.068;2023-03-14T15:28:27;1.93;;;1.00;;
15595;SDS011;7898;48.658;9.068;2023-03-14T15:30:55;1.93;;;0.93;;
15595;SDS011;7898;48.658;9.068;2023-03-14T15:33:24;1.20;;;0.70;;
15595;SDS011;7898;48.658;9.068;2023-03-14T15:35:52;5.30;;;1.30;;
15595;SDS011;7898;48.658;9.068;2023-03-14T15:38:20;2.13;;;0.80;;
15595;SDS011;7898;48.658;9.068;2023-03-14T15:40:48;3.13;;;0.90;;